createdAt,value
2023-04-17T00:02:25.662Z,3.07
2023-04-17T00:04:55.238Z,2.87
2023-04-17T00:07:24.216Z,2.77
2023-04-17T00:09:52.419Z,3.00
2023-04-17T00:12:22.089Z,3.30
2023-04-17T00:14:50.285Z,2.80
2023-04-17T00:20:07.850Z,2.80
2023-04-17T00:22:37.055Z,2.83
2023-04-17T00:25:05.947Z,2.50
2023-04-17T00:27:38.668Z,2.37
2023-04-17T00:30:08.179Z,2.60
2023-04-17T00:32:36.982Z,2.40
2023-04-17T00:35:05.697Z,2.50
2023-04-17T00:37:35.654Z,2.40
2023-04-17T00:40:04.252Z,2.70
2023-04-17T00:42:32.683Z,2.40
2023-04-17T00:45:02.999Z,2.70
2023-04-17T00:47:31.785Z,2.50
2023-04-17T00:50:00.232Z,2.70
2023-04-17T00:52:30.384Z,2.40
2023-04-17T00:55:00.814Z,2.00
2023-04-17T00:57:30.092Z,2.47
2023-04-17T00:59:58.913Z,2.43
2023-04-17T01:02:28.852Z,2.63
2023-04-17T01:04:57.299Z,2.37
2023-04-17T01:07:26.283Z,2.37
2023-04-17T01:09:55.261Z,2.20
2023-04-17T01:12:25.030Z,2.37
2023-04-17T01:14:54.025Z,2.30
2023-04-17T01:17:22.997Z,2.10
2023-04-17T01:19:52.762Z,2.53
2023-04-17T01:22:21.575Z,2.30
2023-04-17T01:24:55.324Z,2.30
2023-04-17T01:27:25.155Z,2.50
2023-04-17T01:29:53.199Z,2.10
2023-04-17T01:32:21.764Z,2.10
2023-04-17T01:34:51.104Z,2.07
2023-04-17T01:37:19.984Z,2.20
2023-04-17T01:39:48.581Z,2.40
2023-04-17T01:42:18.105Z,2.07
2023-04-17T01:44:46.360Z,2.30
2023-04-17T01:47:14.715Z,2.40
2023-04-17T01:49:42.786Z,2.00
2023-04-17T01:52:11.012Z,2.00
2023-04-17T01:54:39.413Z,2.70
2023-04-17T01:57:07.764Z,1.93
2023-04-17T01:59:37.264Z,2.17
2023-04-17T02:02:05.870Z,2.10
2023-04-17T02:04:36.186Z,2.27
2023-04-17T02:07:04.348Z,2.43
2023-04-17T02:09:32.952Z,2.47
2023-04-17T02:12:01.752Z,2.67
2023-04-17T02:14:31.755Z,2.70
2023-04-17T02:17:01.561Z,2.70
2023-04-17T02:19:34.091Z,3.10
2023-04-17T02:22:04.347Z,3.33
2023-04-17T02:24:32.778Z,2.90
2023-04-17T02:27:02.759Z,3.00
2023-04-17T02:29:31.178Z,3.97
2023-04-17T02:32:00.696Z,3.90
2023-04-17T02:34:29.099Z,3.60
2023-04-17T02:36:59.326Z,3.70
2023-04-17T02:39:27.505Z,3.40
2023-04-17T02:41:55.809Z,4.83
2023-04-17T02:44:23.836Z,3.53
2023-04-17T02:46:52.034Z,3.93
2023-04-17T02:49:21.485Z,4.17
2023-04-17T02:51:49.565Z,3.57
2023-04-17T02:54:17.858Z,4.17
2023-04-17T02:56:46.556Z,5.30
2023-04-17T02:59:15.046Z,4.60
2023-04-17T03:01:45.814Z,4.70
2023-04-17T03:04:15.684Z,4.67
2023-04-17T03:06:45.381Z,4.70
2023-04-17T03:09:15.567Z,5.60
2023-04-17T03:11:43.647Z,5.00
2023-04-17T03:14:11.640Z,5.30
2023-04-17T03:16:39.743Z,4.50
2023-04-17T03:19:07.845Z,4.87
2023-04-17T03:21:36.301Z,5.13
2023-04-17T03:24:06.699Z,5.33
2023-04-17T03:26:34.838Z,5.20
2023-04-17T03:29:07.953Z,5.10
2023-04-17T03:31:36.026Z,4.67
2023-04-17T03:34:04.353Z,4.67
2023-04-17T03:36:32.613Z,5.70
2023-04-17T03:39:00.666Z,6.00
2023-04-17T03:41:30.143Z,5.00
2023-04-17T03:43:58.588Z,5.57
2023-04-17T03:46:26.857Z,5.40
2023-04-17T03:48:55.747Z,5.33
2023-04-17T03:51:24.694Z,8.20
2023-04-17T03:53:55.301Z,8.00
2023-04-17T03:56:24.810Z,10.07
2023-04-17T03:58:55.875Z,10.80
2023-04-17T04:01:28.563Z,6.37
2023-04-17T04:04:19.353Z,9.10
2023-04-17T04:06:49.510Z,9.20
2023-04-17T04:09:21.056Z,9.77
2023-04-17T04:11:49.225Z,10.57
2023-04-17T04:14:18.727Z,10.10
2023-04-17T04:16:49.409Z,10.17
2023-04-17T04:19:17.488Z,10.60
2023-04-17T04:21:46.180Z,10.73
2023-04-17T04:24:15.768Z,11.93
2023-04-17T04:26:47.465Z,10.93
2023-04-17T04:29:15.672Z,13.13
2023-04-17T04:31:51.816Z,14.00
2023-04-17T04:34:25.893Z,12.70
2023-04-17T04:36:54.218Z,12.80
2023-04-17T04:39:33.660Z,14.00
2023-04-17T04:42:06.293Z,12.63
2023-04-17T04:44:48.539Z,14.20
2023-04-17T04:47:20.443Z,14.90
2023-04-17T04:49:50.996Z,14.03
2023-04-17T04:52:22.049Z,14.60
2023-04-17T04:54:52.513Z,14.33
2023-04-17T04:57:21.076Z,17.47
2023-04-17T04:59:53.173Z,17.53
2023-04-17T05:02:49.632Z,17.40
2023-04-17T05:05:21.953Z,14.53
2023-04-17T05:07:50.157Z,17.30
2023-04-17T05:10:19.314Z,16.10
2023-04-17T05:12:52.188Z,11.40
2023-04-17T05:15:20.526Z,9.90
2023-04-17T05:17:50.736Z,9.90
2023-04-17T05:20:19.330Z,9.50
2023-04-17T05:22:51.928Z,11.80
2023-04-17T05:25:20.872Z,10.40
2023-04-17T05:27:49.136Z,10.80
2023-04-17T05:30:18.184Z,15.37
2023-04-17T05:32:51.950Z,11.27
2023-04-17T05:35:44.015Z,13.93
2023-04-17T05:38:12.044Z,12.90
2023-04-17T05:40:40.250Z,12.00
2023-04-17T05:43:09.391Z,10.87
2023-04-17T05:45:38.317Z,11.10
2023-04-17T05:48:11.793Z,11.50
2023-04-17T05:50:40.181Z,11.37
2023-04-17T05:53:09.287Z,11.03
2023-04-17T05:55:44.481Z,9.50
2023-04-17T06:00:47.580Z,9.90
2023-04-17T06:03:19.919Z,8.90
2023-04-17T06:05:53.167Z,9.27
2023-04-17T06:08:21.571Z,8.37
2023-04-17T06:10:50.780Z,8.50
2023-04-17T06:13:19.109Z,8.33
2023-04-17T06:15:51.412Z,7.70
2023-04-17T06:18:21.255Z,8.07
2023-04-17T06:20:49.407Z,9.27
2023-04-17T06:23:17.416Z,10.90
2023-04-17T06:25:45.697Z,9.50
2023-04-17T06:28:13.968Z,19.23
2023-04-17T06:30:42.119Z,25.03
2023-04-17T06:33:10.455Z,25.93
2023-04-17T06:35:40.896Z,48.80
2023-04-17T06:38:20.017Z,11.77
2023-04-17T06:40:48.946Z,12.80
2023-04-17T06:43:18.304Z,29.73
2023-04-17T06:45:46.513Z,8.80
2023-04-17T06:48:14.601Z,22.73
2023-04-17T06:50:44.003Z,16.13
2023-04-17T06:53:14.269Z,13.57
2023-04-17T06:55:42.289Z,21.03
2023-04-17T06:58:10.447Z,10.60
2023-04-17T07:00:38.550Z,10.60
2023-04-17T07:03:06.990Z,13.83
2023-04-17T07:05:35.300Z,14.80
2023-04-17T07:08:04.933Z,12.77
2023-04-17T07:10:32.975Z,10.10
2023-04-17T07:13:01.826Z,12.47
2023-04-17T07:15:31.276Z,14.20
2023-04-17T07:18:00.545Z,11.27
2023-04-17T07:20:28.790Z,11.13
2023-04-17T07:22:57.344Z,11.40
2023-04-17T07:25:27.125Z,12.60
2023-04-17T07:27:56.926Z,11.53
2023-04-17T07:30:25.315Z,12.57
2023-04-17T07:32:53.593Z,11.30
2023-04-17T07:35:23.754Z,13.40
2023-04-17T07:37:51.956Z,11.40
2023-04-17T07:40:20.218Z,11.77
2023-04-17T07:42:49.587Z,12.63
2023-04-17T07:45:17.990Z,11.50
2023-04-17T07:47:47.538Z,13.83
2023-04-17T07:50:15.873Z,14.53
2023-04-17T07:52:43.967Z,12.50
2023-04-17T07:55:12.032Z,11.57
2023-04-17T07:57:42.878Z,12.33
2023-04-17T08:00:14.818Z,10.90
2023-04-17T08:02:43.834Z,11.43
2023-04-17T08:05:12.484Z,10.43
2023-04-17T08:07:41.210Z,12.80
2023-04-17T08:10:10.195Z,10.63
2023-04-17T08:12:38.542Z,11.30
2023-04-17T08:15:07.570Z,12.13
2023-04-17T08:17:37.084Z,11.07
2023-04-17T08:20:11.227Z,11.50
2023-04-17T08:22:43.392Z,11.87
2023-04-17T08:25:12.429Z,13.60
2023-04-17T08:27:42.023Z,11.73
2023-04-17T08:30:13.732Z,10.23
2023-04-17T08:32:45.998Z,11.30
2023-04-17T08:35:15.830Z,13.07
2023-04-17T08:37:46.703Z,11.70
2023-04-17T08:40:17.027Z,13.33
2023-04-17T08:42:47.718Z,13.43
2023-04-17T08:45:16.138Z,12.40
2023-04-17T08:47:45.656Z,17.40
2023-04-17T08:50:15.757Z,14.03
2023-04-17T08:52:45.260Z,16.47
2023-04-17T08:55:15.065Z,15.60
2023-04-17T08:57:57.113Z,16.97
2023-04-17T09:00:27.199Z,16.40
2023-04-17T09:02:58.170Z,14.80
2023-04-17T09:05:30.155Z,16.87
2023-04-17T09:08:12.649Z,15.57
2023-04-17T09:10:42.442Z,15.03
2023-04-17T09:13:12.289Z,15.67
2023-04-17T09:15:40.397Z,16.37
2023-04-17T09:18:25.875Z,16.97
2023-04-17T09:20:54.137Z,13.40
2023-04-17T09:23:22.832Z,14.90
2023-04-17T09:26:07.441Z,16.43
2023-04-17T09:28:36.839Z,16.53
2023-04-17T09:31:06.568Z,15.70
2023-04-17T09:33:36.022Z,16.83
2023-04-17T09:36:22.862Z,18.77
2023-04-17T09:38:51.588Z,17.27
2023-04-17T09:41:27.117Z,19.87
2023-04-17T09:43:56.026Z,17.53
2023-04-17T09:46:39.117Z,19.90
2023-04-17T09:49:12.142Z,17.67
2023-04-17T09:51:40.799Z,16.90
2023-04-17T09:54:12.249Z,17.40
2023-04-17T09:56:41.200Z,18.37
2023-04-17T09:59:09.885Z,17.77
2023-04-17T10:01:40.818Z,16.27
2023-04-17T10:04:10.733Z,17.37
2023-04-17T10:06:39.077Z,16.80
2023-04-17T10:09:07.960Z,17.60
2023-04-17T10:11:39.292Z,16.13
2023-04-17T10:14:14.572Z,17.90
2023-04-17T10:16:43.768Z,16.53
2023-04-17T10:19:32.874Z,17.77
2023-04-17T10:22:34.064Z,18.40
2023-04-17T10:25:22.180Z,17.47
2023-04-17T10:27:58.315Z,16.80
2023-04-17T10:30:47.420Z,18.40
2023-04-17T10:33:28.499Z,17.53
2023-04-17T10:35:57.904Z,18.53
2023-04-17T10:38:38.571Z,18.07
2023-04-17T10:41:11.119Z,19.00
2023-04-17T10:43:45.138Z,17.50
2023-04-17T10:46:14.268Z,15.70
2023-04-17T10:48:49.411Z,15.30
2023-04-17T10:51:44.568Z,18.10
2023-04-17T10:54:15.387Z,18.17
2023-04-17T10:56:48.323Z,18.60
2023-04-17T10:59:17.350Z,15.00
2023-04-17T11:02:01.506Z,21.53
2023-04-17T11:04:31.902Z,17.30
2023-04-17T11:07:01.875Z,14.80
2023-04-17T11:09:30.848Z,15.67
2023-04-17T11:12:01.505Z,20.40
2023-04-17T11:14:30.386Z,18.17
2023-04-17T11:16:58.623Z,19.10
2023-04-17T11:19:27.097Z,18.87
2023-04-17T11:21:58.651Z,17.27
2023-04-17T11:24:29.547Z,18.07
2023-04-17T11:26:59.573Z,16.80
2023-04-17T11:29:28.161Z,17.40
2023-04-17T11:31:57.386Z,16.73
2023-04-17T11:34:27.114Z,19.57
2023-04-17T11:36:57.402Z,17.17
2023-04-17T11:39:29.682Z,17.63
2023-04-17T11:41:58.016Z,16.10
2023-04-17T11:44:26.941Z,16.47
2023-04-17T11:46:56.341Z,16.00
2023-04-17T11:49:28.203Z,15.90
2023-04-17T11:52:00.123Z,14.60
2023-04-17T11:54:30.200Z,18.20
2023-04-17T11:57:02.458Z,15.10
2023-04-17T11:59:32.632Z,15.33
2023-04-17T12:02:02.039Z,16.70
2023-04-17T12:04:33.897Z,14.83
2023-04-17T12:07:02.763Z,14.60
2023-04-17T12:09:32.683Z,16.17
2023-04-17T12:12:01.316Z,14.00
2023-04-17T12:14:29.504Z,15.80
2023-04-17T12:16:57.481Z,15.17
2023-04-17T12:19:27.239Z,16.00
2023-04-17T12:21:55.682Z,12.70
2023-04-17T12:24:24.972Z,14.67
2023-04-17T12:26:54.840Z,13.83
2023-04-17T12:29:36.158Z,13.43
2023-04-17T12:32:11.392Z,13.03
2023-04-17T12:34:39.541Z,13.77
2023-04-17T12:37:07.634Z,12.93
2023-04-17T12:39:35.745Z,13.00
2023-04-17T12:42:05.599Z,13.63
2023-04-17T12:44:33.704Z,14.00
2023-04-17T12:47:01.771Z,12.53
2023-04-17T12:49:29.825Z,12.87
2023-04-17T12:51:58.091Z,11.67
2023-04-17T12:54:26.582Z,12.10
2023-04-17T12:56:55.917Z,11.57
2023-04-17T12:59:25.307Z,11.60
2023-04-17T13:01:53.371Z,11.93
2023-04-17T13:04:21.743Z,10.53
2023-04-17T13:06:50.043Z,10.57
2023-04-17T13:09:18.093Z,11.87
2023-04-17T13:11:46.519Z,12.47
2023-04-17T13:14:15.271Z,10.83
2023-04-17T13:16:45.618Z,10.60
2023-04-17T13:19:13.988Z,9.80
2023-04-17T13:21:42.260Z,9.63
2023-04-17T13:24:14.457Z,9.87
2023-04-17T13:26:43.055Z,9.40
2023-04-17T13:29:11.507Z,10.43
2023-04-17T13:31:39.793Z,8.80
2023-04-17T13:34:10.836Z,8.60
2023-04-17T13:36:38.955Z,9.17
2023-04-17T13:39:07.204Z,8.60
2023-04-17T13:41:35.456Z,10.17
2023-04-17T13:44:03.612Z,9.30
2023-04-17T13:46:32.973Z,9.00
2023-04-17T13:49:01.087Z,9.90
2023-04-17T13:51:31.989Z,9.80
2023-04-17T13:54:00.112Z,8.80
2023-04-17T13:56:28.490Z,9.70
2023-04-17T13:58:57.473Z,9.07
2023-04-17T14:01:25.614Z,7.97
2023-04-17T14:03:54.067Z,9.50
2023-04-17T14:06:22.280Z,7.87
2023-04-17T14:08:51.648Z,8.27
2023-04-17T14:11:19.680Z,8.23
2023-04-17T14:13:47.742Z,7.50
2023-04-17T14:16:16.127Z,8.20
2023-04-17T14:18:44.280Z,8.80
2023-04-17T14:21:12.357Z,9.10
2023-04-17T14:23:40.378Z,8.90
2023-04-17T14:26:10.014Z,9.17
2023-04-17T14:28:38.406Z,9.03
2023-04-17T14:31:06.716Z,8.33
2023-04-17T14:33:34.854Z,8.87
2023-04-17T14:36:05.206Z,7.87
2023-04-17T14:38:34.602Z,8.10
2023-04-17T14:41:02.653Z,7.67
2023-04-17T14:43:32.099Z,8.63
2023-04-17T14:46:00.189Z,8.33
2023-04-17T14:48:29.742Z,7.93
2023-04-17T14:50:59.917Z,7.80
2023-04-17T14:53:27.953Z,8.40
2023-04-17T14:55:56.122Z,8.40
2023-04-17T14:58:24.132Z,6.80
2023-04-17T15:00:53.528Z,8.40
2023-04-17T15:03:21.708Z,8.13
2023-04-17T15:05:50.117Z,6.70
2023-04-17T15:08:18.094Z,7.27
2023-04-17T15:10:51.323Z,7.83
2023-04-17T15:13:19.947Z,7.33
2023-04-17T15:15:48.028Z,7.30
2023-04-17T15:18:17.455Z,8.07
2023-04-17T15:20:46.239Z,7.30
2023-04-17T15:23:15.620Z,7.80
2023-04-17T15:25:43.717Z,6.30
2023-04-17T15:28:12.374Z,7.20
2023-04-17T15:30:40.452Z,6.50
2023-04-17T15:33:10.251Z,7.67
2023-04-17T15:35:39.994Z,7.00
2023-04-17T15:38:08.409Z,6.80
2023-04-17T15:40:36.417Z,6.63
2023-04-17T15:43:04.505Z,7.70
2023-04-17T15:45:32.507Z,6.47
2023-04-17T15:48:01.678Z,7.37
2023-04-17T15:50:30.234Z,7.10
2023-04-17T15:52:59.621Z,8.40
2023-04-17T15:55:27.686Z,7.97
2023-04-17T15:57:56.116Z,9.20
2023-04-17T16:00:24.209Z,9.40
2023-04-17T16:02:52.924Z,8.13
2023-04-17T16:05:21.399Z,7.70
2023-04-17T16:07:49.500Z,8.90
2023-04-17T16:10:19.367Z,7.17
2023-04-17T16:12:47.836Z,8.87
2023-04-17T16:15:17.055Z,8.37
2023-04-17T16:17:48.380Z,8.60
2023-04-17T16:20:16.844Z,7.83
2023-04-17T16:22:45.045Z,5.80
2023-04-17T16:25:13.139Z,7.93
2023-04-17T16:27:42.567Z,7.47
2023-04-17T16:30:11.535Z,7.03
2023-04-17T16:32:39.736Z,9.67
2023-04-17T16:35:08.581Z,9.30
2023-04-17T16:37:36.716Z,9.33
2023-04-17T16:40:05.807Z,8.97
2023-04-17T16:42:34.043Z,8.10
2023-04-17T16:45:03.873Z,7.97
2023-04-17T16:47:32.885Z,7.53
2023-04-17T16:50:01.054Z,7.90
2023-04-17T16:52:29.582Z,7.07
2023-04-17T16:54:57.779Z,8.00
2023-04-17T16:57:26.046Z,8.60
2023-04-17T16:59:54.188Z,9.47
2023-04-17T17:02:23.825Z,9.83
2023-04-17T17:04:52.116Z,8.30
2023-04-17T17:07:20.458Z,8.70
2023-04-17T17:09:48.816Z,8.50
2023-04-17T17:12:16.816Z,8.70
2023-04-17T17:14:45.040Z,9.50
2023-04-17T17:17:13.114Z,9.90
2023-04-17T17:19:42.524Z,9.80
2023-04-17T17:22:10.739Z,9.90
2023-04-17T17:24:39.727Z,8.17
2023-04-17T17:27:07.711Z,8.80
2023-04-17T17:29:35.743Z,9.20
2023-04-17T17:32:03.844Z,8.70
2023-04-17T17:34:32.528Z,8.00
2023-04-17T17:37:02.074Z,9.30
2023-04-17T17:39:30.161Z,8.40
2023-04-17T17:41:58.206Z,9.97
2023-04-17T17:44:26.207Z,10.40
2023-04-17T17:46:54.314Z,12.37
2023-04-17T17:49:22.284Z,22.97
2023-04-17T17:51:50.315Z,9.30
2023-04-17T17:54:19.893Z,8.53
2023-04-17T17:56:48.029Z,7.13
2023-04-17T17:59:16.110Z,8.23
2023-04-17T18:01:44.217Z,7.60
2023-04-17T18:04:12.702Z,8.17
2023-04-17T18:06:41.174Z,7.93
2023-04-17T18:09:09.163Z,13.10
2023-04-17T18:11:39.318Z,18.40
2023-04-17T18:14:07.659Z,12.93
2023-04-17T18:16:37.101Z,14.10
2023-04-17T18:19:05.178Z,19.03
2023-04-17T18:21:33.775Z,22.80
2023-04-17T18:24:02.822Z,28.80
2023-04-17T18:26:30.943Z,33.07
2023-04-17T18:29:00.386Z,24.50
2023-04-17T18:31:28.530Z,22.20
2023-04-17T18:33:56.641Z,17.00
2023-04-17T18:36:24.663Z,12.60
2023-04-17T18:38:52.826Z,10.20
2023-04-17T18:41:21.467Z,9.00
2023-04-17T18:43:49.492Z,8.80
2023-04-17T18:46:19.177Z,9.93
2023-04-17T18:48:47.217Z,9.10
2023-04-17T18:51:15.634Z,8.70
2023-04-17T18:53:43.761Z,8.73
2023-04-17T18:56:13.746Z,8.47
2023-04-17T18:58:41.859Z,7.23
2023-04-17T19:01:10.623Z,7.80
2023-04-17T19:03:40.735Z,7.73
2023-04-17T19:06:08.804Z,7.30
2023-04-17T19:08:39.413Z,9.33
2023-04-17T19:11:08.620Z,8.30
2023-04-17T19:13:36.751Z,8.40
2023-04-17T19:16:04.836Z,8.20
2023-04-17T19:18:33.026Z,8.10
2023-04-17T19:21:02.872Z,7.80
2023-04-17T19:23:31.129Z,8.70
2023-04-17T19:25:59.312Z,9.50
2023-04-17T19:28:28.432Z,9.53
2023-04-17T19:30:57.808Z,9.77
2023-04-17T19:33:25.895Z,10.30
2023-04-17T19:35:54.065Z,8.77
2023-04-17T19:38:23.529Z,9.70
2023-04-17T19:41:14.714Z,9.13
2023-04-17T19:43:43.100Z,9.10
2023-04-17T19:46:11.298Z,9.43
2023-04-17T19:48:39.536Z,10.00
2023-04-17T19:51:08.091Z,10.90
2023-04-17T19:53:38.460Z,10.00
2023-04-17T19:56:08.622Z,10.87
2023-04-17T19:58:37.226Z,10.87
2023-04-17T20:01:05.626Z,11.53
2023-04-17T20:03:34.168Z,11.80
2023-04-17T20:06:03.420Z,11.47
2023-04-17T20:08:31.577Z,10.30
2023-04-17T20:11:01.267Z,11.30
2023-04-17T20:13:29.281Z,9.53
2023-04-17T20:15:57.333Z,11.50
2023-04-17T20:18:25.593Z,10.07
2023-04-17T20:20:53.790Z,10.90
2023-04-17T20:23:21.789Z,11.10
2023-04-17T20:25:50.509Z,11.57
2023-04-17T20:28:20.026Z,11.43
2023-04-17T20:30:48.234Z,12.27
2023-04-17T20:33:16.417Z,12.37
2023-04-17T20:35:44.542Z,12.47
2023-04-17T20:38:12.769Z,11.60
2023-04-17T20:40:40.887Z,10.40
2023-04-17T20:43:08.922Z,12.50
2023-04-17T20:45:38.565Z,12.93
2023-04-17T20:48:06.776Z,12.23
2023-04-17T20:50:34.992Z,12.10
2023-04-17T20:53:03.093Z,11.70
2023-04-17T20:55:31.176Z,12.53
2023-04-17T20:57:59.241Z,12.67
2023-04-17T21:00:27.470Z,13.43
2023-04-17T21:02:56.966Z,12.20
2023-04-17T21:05:25.236Z,14.77
2023-04-17T21:07:54.321Z,13.60
2023-04-17T21:10:22.315Z,13.60
2023-04-17T21:12:50.425Z,13.70
2023-04-17T21:15:18.718Z,11.23
2023-04-17T21:17:47.749Z,11.90
2023-04-17T21:20:17.488Z,13.17
2023-04-17T21:22:45.630Z,13.80
2023-04-17T21:25:13.657Z,12.23
2023-04-17T21:27:43.681Z,11.43
2023-04-17T21:30:12.154Z,11.93
2023-04-17T21:32:40.760Z,10.77
2023-04-17T21:35:09.974Z,8.70
2023-04-17T21:37:39.468Z,10.77
2023-04-17T21:40:08.703Z,10.10
2023-04-17T21:42:37.107Z,10.30
2023-04-17T21:45:05.833Z,8.70
2023-04-17T21:47:34.940Z,8.23
2023-04-17T21:50:03.171Z,8.57
2023-04-17T21:52:31.242Z,7.87
2023-04-17T21:55:07.283Z,8.13
2023-04-17T21:57:37.472Z,7.60
2023-04-17T22:00:09.884Z,7.20
2023-04-17T22:02:38.138Z,7.10
2023-04-17T22:05:06.845Z,7.00
2023-04-17T22:07:44.002Z,6.97
2023-04-17T22:10:21.147Z,7.63
2023-04-17T22:12:49.212Z,6.93
2023-04-17T22:15:17.413Z,6.50
2023-04-17T22:17:45.598Z,7.17
2023-04-17T22:20:14.131Z,7.83
2023-04-17T22:22:42.283Z,7.03
2023-04-17T22:25:10.832Z,6.43
2023-04-17T22:27:40.598Z,7.43
2023-04-17T22:30:09.346Z,7.43
2023-04-17T22:32:37.749Z,6.90
2023-04-17T22:35:06.593Z,6.87
2023-04-17T22:37:34.697Z,6.50
2023-04-17T22:40:02.734Z,6.37
2023-04-17T22:42:30.772Z,7.43
2023-04-17T22:45:00.526Z,6.70
2023-04-17T22:47:28.629Z,7.03
2023-04-17T22:49:57.640Z,6.33
2023-04-17T22:52:25.675Z,7.00
2023-04-17T22:54:54.495Z,6.90
2023-04-17T22:57:22.546Z,7.67
2023-04-17T22:59:50.642Z,7.50
2023-04-17T23:02:20.036Z,6.03
2023-04-17T23:04:48.209Z,7.77
2023-04-17T23:07:16.310Z,8.00
2023-04-17T23:09:44.826Z,7.60
2023-04-17T23:12:12.822Z,7.63
2023-04-17T23:14:41.012Z,6.77
2023-04-17T23:17:12.149Z,6.23
2023-04-17T23:19:41.616Z,8.17
2023-04-17T23:22:10.774Z,6.70
2023-04-17T23:24:38.972Z,8.37
2023-04-17T23:27:07.057Z,8.60
2023-04-17T23:29:35.170Z,8.90
2023-04-17T23:32:04.476Z,6.77
2023-04-17T23:34:32.525Z,8.43
2023-04-17T23:37:02.516Z,10.07
2023-04-17T23:39:30.758Z,8.00
2023-04-17T23:42:00.488Z,9.23
2023-04-17T23:44:28.694Z,8.43
2023-04-17T23:46:56.918Z,10.10
2023-04-17T23:49:25.029Z,9.60
2023-04-17T23:51:53.266Z,9.10
2023-04-17T23:54:22.755Z,8.40
2023-04-17T23:56:50.873Z,9.57
2023-04-17T23:59:19.162Z,9.97
